createdAt,value
2019-06-20T00:00:41.764Z,18.20
2019-06-20T00:03:15.856Z,18.00
2019-06-20T00:08:38.259Z,17.90
2019-06-20T00:11:11.077Z,17.80
2019-06-20T00:13:45.434Z,17.60
2019-06-20T00:16:17.567Z,17.50
2019-06-20T00:18:50.360Z,17.40
2019-06-20T00:21:23.354Z,17.40
2019-06-20T00:23:58.335Z,17.50
2019-06-20T00:26:31.919Z,17.60
2019-06-20T00:29:03.685Z,17.90
2019-06-20T00:31:35.296Z,18.10
2019-06-20T00:34:07.376Z,18.20
2019-06-20T00:36:38.879Z,18.40
2019-06-20T00:39:20.938Z,18.50
2019-06-20T00:41:52.618Z,18.50
2019-06-20T00:44:29.150Z,18.70
2019-06-20T00:47:01.197Z,18.80
2019-06-20T00:49:34.263Z,18.90
2019-06-20T00:52:07.553Z,19.10
2019-06-20T00:54:40.572Z,19.40
2019-06-20T00:57:15.217Z,19.50
2019-06-20T00:59:47.798Z,19.50
2019-06-20T01:08:43.006Z,18.80
2019-06-20T01:11:14.550Z,18.60
2019-06-20T01:13:46.013Z,18.50
2019-06-20T01:16:17.613Z,18.50
2019-06-20T01:18:48.946Z,18.40
2019-06-20T01:21:20.240Z,18.40
2019-06-20T01:23:51.738Z,18.30
2019-06-20T01:26:23.155Z,18.00
2019-06-20T01:28:54.569Z,17.80
2019-06-20T01:31:26.058Z,17.50
2019-06-20T01:33:57.653Z,17.30
2019-06-20T01:36:29.344Z,17.00
2019-06-20T01:39:00.836Z,16.60
2019-06-20T01:41:34.215Z,16.40
2019-06-20T01:44:05.769Z,16.30
2019-06-20T01:46:37.286Z,16.30
2019-06-20T01:49:08.717Z,16.70
2019-06-20T01:51:40.241Z,17.50
2019-06-20T01:54:11.854Z,17.60
2019-06-20T01:56:43.288Z,17.60
2019-06-20T01:59:14.761Z,17.80
2019-06-20T02:01:46.338Z,17.80
2019-06-20T02:04:17.628Z,17.60
2019-06-20T02:06:49.155Z,17.40
2019-06-20T02:09:20.775Z,17.50
2019-06-20T02:11:52.272Z,17.30
2019-06-20T02:14:23.690Z,17.10
2019-06-20T02:16:55.600Z,17.10
2019-06-20T02:19:27.152Z,17.00
2019-06-20T02:21:58.972Z,16.60
2019-06-20T02:24:30.607Z,16.40
2019-06-20T02:27:02.057Z,16.30
2019-06-20T02:29:33.411Z,16.20
2019-06-20T02:32:05.274Z,16.20
2019-06-20T02:34:38.697Z,16.20
2019-06-20T02:37:10.154Z,16.40
2019-06-20T02:39:41.725Z,16.50
2019-06-20T02:42:13.192Z,16.70
2019-06-20T02:44:44.725Z,16.90
2019-06-20T02:47:16.521Z,17.00
2019-06-20T02:49:48.077Z,17.10
2019-06-20T02:52:19.793Z,17.30
2019-06-20T02:54:51.251Z,17.40
2019-06-20T02:57:22.886Z,17.40
2019-06-20T02:59:55.750Z,17.70
2019-06-20T03:02:50.496Z,17.70
2019-06-20T03:05:22.290Z,17.80
2019-06-20T03:07:53.705Z,18.10
2019-06-20T03:10:25.775Z,18.20
2019-06-20T03:12:57.370Z,18.20
2019-06-20T03:15:28.969Z,18.10
2019-06-20T03:18:00.556Z,17.80
2019-06-20T03:20:31.915Z,17.50
2019-06-20T03:23:03.428Z,17.20
2019-06-20T03:25:34.884Z,17.00
2019-06-20T03:28:09.720Z,16.80
2019-06-20T03:30:41.175Z,16.70
2019-06-20T03:33:13.584Z,16.60
2019-06-20T03:35:45.398Z,16.40
2019-06-20T03:38:16.842Z,16.50
2019-06-20T03:40:48.398Z,16.40
2019-06-20T03:43:19.990Z,16.30
2019-06-20T03:45:53.804Z,16.10
2019-06-20T03:48:45.791Z,16.10
2019-06-20T03:51:17.473Z,16.00
2019-06-20T03:53:48.820Z,16.20
2019-06-20T03:56:21.758Z,16.30
2019-06-20T03:58:53.274Z,16.50
2019-06-20T04:01:24.807Z,16.70
2019-06-20T04:03:56.251Z,16.80
2019-06-20T04:06:27.588Z,17.00
2019-06-20T04:08:59.089Z,17.30
2019-06-20T04:11:30.504Z,17.30
2019-06-20T04:14:01.767Z,17.40
2019-06-20T04:16:33.984Z,17.60
2019-06-20T04:19:05.399Z,18.00
2019-06-20T04:21:36.667Z,18.30
2019-06-20T04:24:08.038Z,18.40
2019-06-20T04:26:39.854Z,18.60
2019-06-20T04:29:17.107Z,18.60
2019-06-20T04:32:02.924Z,18.40
2019-06-20T04:34:35.827Z,18.30
2019-06-20T04:37:07.495Z,18.70
2019-06-20T04:39:45.942Z,18.90
2019-06-20T04:42:18.877Z,18.80
2019-06-20T04:44:52.119Z,19.20
2019-06-20T04:47:23.780Z,19.20
2019-06-20T04:49:55.366Z,19.60
2019-06-20T04:52:27.013Z,19.80
2019-06-20T04:54:59.176Z,20.10
2019-06-20T04:57:31.123Z,20.30
2019-06-20T05:00:02.969Z,20.50
2019-06-20T05:02:35.516Z,20.50
2019-06-20T05:05:11.593Z,20.50
2019-06-20T05:07:43.782Z,20.80
2019-06-20T05:10:15.052Z,21.10
2019-06-20T05:12:46.367Z,20.90
2019-06-20T05:15:18.514Z,21.00
2019-06-20T05:17:51.186Z,21.20
2019-06-20T05:20:23.411Z,21.10
2019-06-20T05:22:56.901Z,21.00
2019-06-20T05:25:29.112Z,20.90
2019-06-20T05:28:01.846Z,21.00
2019-06-20T05:30:34.906Z,21.50
2019-06-20T05:33:07.052Z,21.60
2019-06-20T05:35:38.997Z,21.70
2019-06-20T05:38:10.970Z,21.80
2019-06-20T05:40:43.274Z,21.90
2019-06-20T05:43:15.630Z,21.80
2019-06-20T05:45:48.938Z,21.90
2019-06-20T05:48:21.610Z,22.20
2019-06-20T05:50:53.857Z,22.60
2019-06-20T05:53:25.816Z,22.70
2019-06-20T05:55:57.901Z,22.80
2019-06-20T05:58:30.516Z,22.70
2019-06-20T06:01:02.695Z,23.00
2019-06-20T06:03:35.337Z,23.00
2019-06-20T06:06:07.282Z,23.10
2019-06-20T06:08:39.348Z,23.60
2019-06-20T06:11:11.404Z,23.80
2019-06-20T06:13:43.389Z,23.60
2019-06-20T06:16:25.702Z,23.70
2019-06-20T06:18:51.787Z,23.40
2019-06-20T06:21:25.051Z,23.50
2019-06-20T06:23:57.343Z,23.50
2019-06-20T06:26:29.481Z,24.00
2019-06-20T06:29:01.749Z,24.20
2019-06-20T06:31:34.514Z,24.60
2019-06-20T06:34:06.619Z,24.80
2019-06-20T06:36:38.685Z,24.70
2019-06-20T06:39:11.588Z,24.30
2019-06-20T06:41:43.686Z,23.80
2019-06-20T06:44:15.944Z,24.00
2019-06-20T06:46:55.421Z,24.40
2019-06-20T06:49:22.529Z,24.40
2019-06-20T06:51:56.373Z,24.30
2019-06-20T06:54:28.714Z,24.50
2019-06-20T06:57:02.029Z,24.70
2019-06-20T06:59:33.987Z,24.60
2019-06-20T07:02:06.138Z,24.90
2019-06-20T07:04:38.261Z,25.20
2019-06-20T07:07:10.400Z,25.10
2019-06-20T07:09:42.722Z,24.60
2019-06-20T07:12:14.785Z,24.30
2019-06-20T07:14:47.161Z,24.20
2019-06-20T07:17:19.231Z,23.80
2019-06-20T07:19:51.734Z,24.30
2019-06-20T07:22:23.873Z,25.10
2019-06-20T07:24:55.866Z,25.60
2019-06-20T07:27:28.911Z,24.90
2019-06-20T07:30:00.964Z,24.90
2019-06-20T07:32:33.980Z,24.30
2019-06-20T07:35:08.028Z,24.10
2019-06-20T07:37:40.105Z,24.40
2019-06-20T07:40:13.963Z,24.80
2019-06-20T07:42:45.913Z,24.70
2019-06-20T07:45:19.904Z,24.90
2019-06-20T07:47:51.857Z,25.00
2019-06-20T07:50:24.281Z,24.90
2019-06-20T07:53:01.920Z,25.30
2019-06-20T07:55:29.969Z,25.10
2019-06-20T07:58:02.031Z,24.60
2019-06-20T08:00:34.539Z,24.80
2019-06-20T08:03:07.069Z,24.60
2019-06-20T08:05:39.299Z,25.00
2019-06-20T08:08:11.461Z,25.60
2019-06-20T08:10:43.729Z,26.20
2019-06-20T08:13:15.901Z,26.50
2019-06-20T08:15:48.087Z,26.40
2019-06-20T08:18:20.094Z,26.20
2019-06-20T08:20:52.014Z,26.70
2019-06-20T08:23:24.192Z,26.20
2019-06-20T08:25:57.548Z,26.00
2019-06-20T08:28:38.957Z,25.80
2019-06-20T08:31:11.252Z,26.50
2019-06-20T08:33:43.335Z,27.20
2019-06-20T08:36:17.906Z,27.80
2019-06-20T08:38:49.777Z,27.20
2019-06-20T08:41:21.912Z,27.60
2019-06-20T08:48:13.657Z,28.20
2019-06-20T08:50:46.404Z,29.10
2019-06-20T08:53:19.955Z,29.00
2019-06-20T08:55:52.150Z,28.40
2019-06-20T08:58:24.203Z,28.10
2019-06-20T09:00:58.011Z,28.40
2019-06-20T09:03:29.788Z,28.10
2019-06-20T09:08:34.712Z,28.60
2019-06-20T09:11:07.486Z,28.50
2019-06-20T09:13:40.688Z,28.10
2019-06-20T09:16:24.682Z,28.30
2019-06-20T09:18:56.707Z,28.70
2019-06-20T09:21:28.900Z,28.60
2019-06-20T09:24:01.201Z,27.70
2019-06-20T09:26:33.269Z,28.30
2019-06-20T09:29:05.470Z,28.50
2019-06-20T09:31:37.506Z,27.70
2019-06-20T09:34:10.219Z,27.90
2019-06-20T09:36:43.625Z,28.10
2019-06-20T09:39:16.903Z,28.60
2019-06-20T09:41:51.052Z,29.00
2019-06-20T09:44:23.111Z,29.20
2019-06-20T09:46:56.388Z,29.10
2019-06-20T09:52:17.139Z,29.20
2019-06-20T09:54:50.135Z,29.30
2019-06-20T09:57:22.497Z,29.20
2019-06-20T10:00:05.874Z,28.30
2019-06-20T10:02:28.973Z,28.70
2019-06-20T10:05:32.821Z,29.10
2019-06-20T10:08:18.531Z,28.70
2019-06-20T10:10:52.296Z,28.90
2019-06-20T10:13:27.143Z,28.00
2019-06-20T10:16:00.561Z,28.30
2019-06-20T10:18:39.890Z,29.00
2019-06-20T10:21:11.809Z,29.50
2019-06-20T10:23:46.030Z,29.30
2019-06-20T10:26:17.445Z,29.00
2019-06-20T10:28:51.347Z,28.20
2019-06-20T10:31:23.780Z,28.20
2019-06-20T10:37:34.302Z,29.50
2019-06-20T10:40:09.876Z,29.40
2019-06-20T10:42:44.407Z,28.90
2019-06-20T10:45:20.214Z,28.80
2019-06-20T10:47:54.017Z,29.30
2019-06-20T10:50:26.894Z,30.50
2019-06-20T10:53:01.245Z,31.10
2019-06-20T10:55:33.861Z,31.10
2019-06-20T10:58:05.946Z,31.00
2019-06-20T11:00:41.756Z,31.00
2019-06-20T11:03:14.476Z,31.00
2019-06-20T11:05:48.126Z,31.10
2019-06-20T11:08:20.865Z,31.70
2019-06-20T11:10:54.291Z,31.50
2019-06-20T11:13:26.426Z,31.20
2019-06-20T11:15:58.294Z,30.80
2019-06-20T11:18:39.970Z,30.60
2019-06-20T11:21:14.282Z,30.70
2019-06-20T11:23:59.513Z,29.90
2019-06-20T11:26:33.418Z,30.30
2019-06-20T11:29:05.894Z,30.90
2019-06-20T11:31:41.704Z,30.60
2019-06-20T11:34:12.407Z,31.10
2019-06-20T11:36:45.111Z,31.20
2019-06-20T11:39:17.205Z,31.70
2019-06-20T11:41:49.393Z,31.60
2019-06-20T11:44:21.632Z,30.90
2019-06-20T11:46:53.563Z,30.80
2019-06-20T11:49:25.902Z,30.30
2019-06-20T11:51:57.852Z,30.40
2019-06-20T11:54:30.041Z,30.30
2019-06-20T11:57:01.982Z,30.40
2019-06-20T11:59:33.991Z,30.30
2019-06-20T12:02:06.083Z,30.20
2019-06-20T12:04:39.656Z,30.40
2019-06-20T12:07:12.120Z,30.70
2019-06-20T12:09:44.523Z,30.70
2019-06-20T12:12:16.481Z,31.10
2019-06-20T12:14:50.276Z,31.40
2019-06-20T12:17:22.422Z,31.00
2019-06-20T12:19:54.387Z,31.40
2019-06-20T12:22:26.496Z,30.90
2019-06-20T12:24:58.442Z,30.10
2019-06-20T12:27:30.506Z,29.70
2019-06-20T12:30:05.078Z,30.00
2019-06-20T12:32:37.347Z,30.00
2019-06-20T12:35:09.938Z,30.70
2019-06-20T12:37:42.695Z,31.30
2019-06-20T12:40:15.530Z,31.70
2019-06-20T12:42:49.129Z,31.60
2019-06-20T12:45:21.355Z,31.70
2019-06-20T12:47:53.914Z,31.20
2019-06-20T12:50:26.490Z,31.00
2019-06-20T12:52:59.743Z,30.40
2019-06-20T12:55:32.200Z,29.30
2019-06-20T12:58:04.421Z,29.60
2019-06-20T13:00:38.899Z,30.20
2019-06-20T13:03:10.583Z,30.70
2019-06-20T13:05:43.243Z,30.20
2019-06-20T13:08:15.640Z,30.30
2019-06-20T13:10:48.320Z,30.30
2019-06-20T13:13:20.454Z,30.50
2019-06-20T13:15:52.863Z,30.40
2019-06-20T13:18:28.732Z,30.10
2019-06-20T13:21:04.169Z,29.70
2019-06-20T13:23:39.736Z,29.90
2019-06-20T13:26:11.367Z,29.90
2019-06-20T13:28:58.884Z,30.10
2019-06-20T13:31:17.766Z,30.40
2019-06-20T13:33:49.533Z,30.70
2019-06-20T13:36:21.506Z,30.80
2019-06-20T13:38:54.875Z,31.00
2019-06-20T13:41:27.211Z,30.90
2019-06-20T13:43:59.685Z,30.80
2019-06-20T13:46:31.806Z,30.80
2019-06-20T13:49:03.962Z,30.60
2019-06-20T13:51:36.129Z,30.20
2019-06-20T13:54:08.068Z,30.40
2019-06-20T13:56:43.638Z,30.30
2019-06-20T13:59:15.916Z,30.30
2019-06-20T14:01:49.055Z,30.10
2019-06-20T14:04:23.196Z,30.20
2019-06-20T14:06:56.268Z,29.70
2019-06-20T14:09:28.282Z,29.50
2019-06-20T14:12:00.321Z,29.60
2019-06-20T14:14:32.348Z,29.70
2019-06-20T14:17:04.850Z,29.70
2019-06-20T14:19:36.805Z,29.60
2019-06-20T14:22:08.846Z,29.20
2019-06-20T14:24:43.425Z,29.40
2019-06-20T14:27:16.500Z,29.60
2019-06-20T14:29:49.157Z,29.70
2019-06-20T14:32:24.244Z,29.80
2019-06-20T14:35:00.913Z,29.80
2019-06-20T14:37:34.803Z,29.50
2019-06-20T14:40:10.765Z,29.20
2019-06-20T14:42:45.831Z,29.20
2019-06-20T14:45:18.109Z,29.10
2019-06-20T14:47:52.257Z,29.10
2019-06-20T14:50:24.689Z,29.10
2019-06-20T14:52:56.924Z,28.90
2019-06-20T14:55:28.911Z,29.00
2019-06-20T14:58:01.045Z,29.00
2019-06-20T15:00:33.838Z,29.00
2019-06-20T15:03:05.969Z,29.00
2019-06-20T15:05:37.974Z,28.80
2019-06-20T15:08:10.623Z,28.60
2019-06-20T15:10:46.684Z,28.60
2019-06-20T15:13:19.231Z,28.50
2019-06-20T15:15:53.404Z,28.70
2019-06-20T15:18:28.397Z,28.40
2019-06-20T15:21:08.037Z,28.50
2019-06-20T15:23:40.491Z,28.50
2019-06-20T15:26:12.757Z,28.30
2019-06-20T15:28:47.420Z,28.30
2019-06-20T15:34:09.200Z,28.20
2019-06-20T15:36:43.193Z,28.10
2019-06-20T15:39:15.411Z,28.20
2019-06-20T15:41:49.655Z,28.00
2019-06-20T15:44:21.008Z,28.00
2019-06-20T15:46:56.556Z,27.90
2019-06-20T15:49:28.641Z,27.80
2019-06-20T15:52:01.689Z,27.90
2019-06-20T15:54:35.515Z,27.80
2019-06-20T15:57:07.954Z,27.70
2019-06-20T15:59:42.136Z,27.60
2019-06-20T16:02:13.819Z,27.60
2019-06-20T16:04:45.909Z,27.50
2019-06-20T16:07:18.331Z,27.60
2019-06-20T16:09:50.623Z,27.50
2019-06-20T16:12:22.943Z,27.50
2019-06-20T16:14:55.298Z,27.50
2019-06-20T16:17:27.304Z,27.40
2019-06-20T16:19:59.339Z,27.40
2019-06-20T16:22:33.260Z,27.30
2019-06-20T16:25:10.524Z,27.30
2019-06-20T16:27:43.150Z,27.20
2019-06-20T16:30:15.880Z,27.20
2019-06-20T16:32:48.016Z,27.10
2019-06-20T16:35:20.439Z,27.00
2019-06-20T16:37:52.487Z,27.00
2019-06-20T16:40:43.326Z,26.90
2019-06-20T16:43:15.484Z,26.80
2019-06-20T16:45:47.573Z,26.70
2019-06-20T16:48:19.676Z,26.60
2019-06-20T16:50:51.829Z,26.60
2019-06-20T16:53:23.836Z,26.40
2019-06-20T16:55:57.199Z,26.30
2019-06-20T16:58:29.234Z,26.30
2019-06-20T17:01:01.256Z,26.20
2019-06-20T17:03:41.680Z,26.20
2019-06-20T17:06:17.714Z,26.10
2019-06-20T17:08:49.753Z,26.10
2019-06-20T17:11:22.369Z,26.00
2019-06-20T17:13:54.603Z,26.00
2019-06-20T17:16:26.806Z,25.90
2019-06-20T17:18:59.937Z,25.80
2019-06-20T17:21:32.145Z,25.70
2019-06-20T17:24:05.026Z,25.70
2019-06-20T17:26:37.273Z,25.70
2019-06-20T17:29:09.443Z,25.70
2019-06-20T17:31:41.419Z,25.50
2019-06-20T17:34:13.322Z,25.50
2019-06-20T17:36:45.285Z,25.40
2019-06-20T17:39:17.245Z,25.30
2019-06-20T17:41:55.206Z,25.20
2019-06-20T17:44:26.701Z,25.20
2019-06-20T17:46:57.597Z,25.10
2019-06-20T17:49:29.495Z,25.00
2019-06-20T17:52:01.189Z,24.90
2019-06-20T17:54:32.978Z,24.90
2019-06-20T17:57:04.482Z,24.90
2019-06-20T17:59:35.932Z,24.90
2019-06-20T18:02:07.315Z,24.80
2019-06-20T18:04:41.362Z,24.80
2019-06-20T18:07:13.071Z,24.70
2019-06-20T18:09:44.682Z,24.60
2019-06-20T18:12:17.099Z,24.50
2019-06-20T18:14:48.701Z,24.40
2019-06-20T18:17:20.499Z,24.30
2019-06-20T18:19:52.147Z,24.20
2019-06-20T18:22:24.106Z,24.10
2019-06-20T18:24:55.507Z,24.10
2019-06-20T18:27:28.247Z,24.00
2019-06-20T18:30:01.835Z,23.90
2019-06-20T18:32:34.647Z,23.90
2019-06-20T18:35:10.588Z,23.80
2019-06-20T18:37:42.813Z,23.70
2019-06-20T18:40:16.626Z,23.70
2019-06-20T18:42:48.685Z,23.60
2019-06-20T18:45:21.818Z,23.70
2019-06-20T18:47:54.207Z,23.60
2019-06-20T18:50:25.932Z,23.60
2019-06-20T18:53:01.084Z,23.40
2019-06-20T18:55:32.431Z,23.40
2019-06-20T18:58:04.559Z,23.30
2019-06-20T19:00:37.195Z,23.30
2019-06-20T19:03:09.247Z,23.40
2019-06-20T19:05:41.220Z,23.40
2019-06-20T19:08:13.162Z,23.20
2019-06-20T19:10:45.253Z,23.10
2019-06-20T19:13:18.137Z,22.90
2019-06-20T19:15:49.832Z,22.70
2019-06-20T19:18:23.307Z,22.70
2019-06-20T19:20:55.234Z,22.50
2019-06-20T19:23:28.252Z,22.60
2019-06-20T19:26:00.759Z,22.60
2019-06-20T19:28:33.174Z,22.60
2019-06-20T19:31:06.095Z,22.60
2019-06-20T19:33:38.122Z,22.60
2019-06-20T19:36:10.600Z,22.50
2019-06-20T19:38:42.250Z,22.40
2019-06-20T19:41:14.416Z,22.40
2019-06-20T19:43:45.929Z,22.40
2019-06-20T19:46:17.317Z,22.40
2019-06-20T19:48:49.516Z,22.30
2019-06-20T19:51:21.298Z,22.30
2019-06-20T19:53:52.674Z,22.20
2019-06-20T19:56:24.400Z,22.20
2019-06-20T19:58:56.273Z,22.20
2019-06-20T20:01:27.783Z,22.10
2019-06-20T20:03:59.131Z,21.90
2019-06-20T20:06:30.398Z,21.90
2019-06-20T20:09:02.484Z,21.80
2019-06-20T20:11:35.454Z,21.70
2019-06-20T20:17:32.865Z,21.70
2019-06-20T20:20:06.640Z,21.40
2019-06-20T20:22:37.989Z,21.40
2019-06-20T20:25:11.444Z,21.30
2019-06-20T20:27:42.773Z,21.20
2019-06-20T20:30:15.119Z,21.10
2019-06-20T20:32:46.559Z,21.00
2019-06-20T20:35:34.269Z,20.90
2019-06-20T20:37:51.135Z,20.70
2019-06-20T20:40:23.313Z,20.60
2019-06-20T20:42:54.746Z,20.60
2019-06-20T20:45:26.276Z,20.80
2019-06-20T20:47:57.864Z,20.80
2019-06-20T20:50:31.619Z,20.80
2019-06-20T20:53:03.020Z,20.60
2019-06-20T20:55:34.580Z,20.70
2019-06-20T20:58:05.925Z,20.90
2019-06-20T21:01:01.364Z,21.00
2019-06-20T21:03:32.835Z,21.10
2019-06-20T21:06:04.373Z,21.00
2019-06-20T21:08:35.915Z,21.10
2019-06-20T21:13:54.836Z,21.00
2019-06-20T21:16:27.767Z,21.00
2019-06-20T21:18:59.897Z,21.10
2019-06-20T21:21:39.334Z,21.00
2019-06-20T21:24:10.973Z,21.00
2019-06-20T21:26:49.318Z,20.90
2019-06-20T21:29:16.022Z,21.00
2019-06-20T21:31:47.393Z,21.00
2019-06-20T21:34:18.801Z,21.00
2019-06-20T21:36:50.428Z,20.90
2019-06-20T21:39:22.059Z,21.00
2019-06-20T21:41:57.868Z,21.10
2019-06-20T21:44:29.188Z,21.10
2019-06-20T21:47:00.718Z,21.00
2019-06-20T21:49:33.930Z,21.20
2019-06-20T21:52:06.610Z,21.20
2019-06-20T21:54:38.245Z,21.10
2019-06-20T21:57:12.335Z,21.00
2019-06-20T22:00:00.839Z,21.00
2019-06-20T22:02:33.848Z,20.90
2019-06-20T22:05:08.095Z,20.70
2019-06-20T22:07:39.861Z,20.60
2019-06-20T22:10:22.208Z,20.60
2019-06-20T22:12:56.683Z,20.40
2019-06-20T22:15:43.403Z,20.40
2019-06-20T22:18:16.544Z,20.50
2019-06-20T22:20:48.119Z,20.50
2019-06-20T22:23:35.812Z,20.50
2019-06-20T22:29:18.229Z,20.20
2019-06-20T22:31:50.504Z,20.10
2019-06-20T22:34:25.248Z,20.00
2019-06-20T22:36:57.287Z,19.90
2019-06-20T22:39:29.530Z,19.60
2019-06-20T22:42:01.211Z,19.20
2019-06-20T22:44:33.623Z,19.30
2019-06-20T22:47:05.042Z,19.50
2019-06-20T22:49:36.575Z,19.60
2019-06-20T22:52:07.989Z,19.60
2019-06-20T22:54:39.453Z,19.80
2019-06-20T22:57:11.715Z,19.90
2019-06-20T22:59:46.489Z,19.90
2019-06-20T23:02:16.029Z,19.80
2019-06-20T23:04:47.565Z,19.60
2019-06-20T23:07:30.404Z,19.40
2019-06-20T23:10:11.063Z,19.10
2019-06-20T23:12:42.053Z,18.90
2019-06-20T23:15:13.553Z,18.60
2019-06-20T23:17:45.234Z,18.10
2019-06-20T23:20:17.052Z,17.60
2019-06-20T23:22:48.430Z,17.50
2019-06-20T23:25:20.149Z,17.40
2019-06-20T23:27:51.722Z,17.30
2019-06-20T23:30:25.096Z,17.30
2019-06-20T23:32:57.565Z,17.40
2019-06-20T23:35:29.002Z,17.50
2019-06-20T23:38:00.592Z,17.60
2019-06-20T23:40:31.933Z,17.60
2019-06-20T23:43:03.550Z,17.80
2019-06-20T23:45:35.176Z,18.10
2019-06-20T23:48:06.652Z,18.20
2019-06-20T23:50:38.271Z,18.50
2019-06-20T23:53:14.210Z,18.60
2019-06-20T23:55:45.938Z,18.70
2019-06-20T23:58:19.724Z,18.60
